Terminal Aerodrome Forecast
Issued by NWS Detroit/Pontiac, MI

Home | Current Version | Previous Version | Text Only | Print | Product List | Glossary On
Versions: 1 2 3 4 5 6 7 8 9 10 11 12 13 14 15 16 17 18 19 20 21 22 23 24 25 26 27 28 29 30 31 32 33 34 35 36 37 38 39 40 41 42 43 44 45 46 47 48 49 50
000
FTUS43 KDTX 230523
TAFFNT
TAF
KFNT 230523Z 2306/2406 28005KT P6SM SCT080
     FM231500 33010KT P6SM SCT060
     FM231900 34012KT P6SM BKN060 PROB30 2320/2322 5SM SHRA BKN045
      OVC060
     FM240000 33005KT P6SM SKC=

USA.gov is the U.S. government's official web portal to all federal, state and local government web resources and services.